sensor_id;sensor_type;location;lat;lon;timestamp;P1;durP1;ratioP1;P2;durP2;ratioP2
19569;SDS011;9931;51.458;7.256;2022-07-23T00:00:06;18.52;;;9.10;;
19569;SDS011;9931;51.458;7.256;2022-07-23T00:02:31;20.60;;;9.88;;
19569;SDS011;9931;51.458;7.256;2022-07-23T00:04:56;16.40;;;9.75;;
19569;SDS011;9931;51.458;7.256;2022-07-23T00:07:21;19.25;;;9.30;;
19569;SDS011;9931;51.458;7.256;2022-07-23T00:09:46;26.00;;;10.82;;
19569;SDS011;9931;51.458;7.256;2022-07-23T00:12:12;15.25;;;8.73;;
19569;SDS011;9931;51.458;7.256;2022-07-23T00:14:37;16.00;;;9.30;;
19569;SDS011;9931;51.458;7.256;2022-07-23T00:17:02;20.13;;;9.88;;
19569;SDS011;9931;51.458;7.256;2022-07-23T00:19:27;18.90;;;9.40;;
19569;SDS011;9931;51.458;7.256;2022-07-23T00:21:54;18.65;;;9.60;;
19569;SDS011;9931;51.458;7.256;2022-07-23T00:24:19;15.32;;;8.82;;
19569;SDS011;9931;51.458;7.256;2022-07-23T00:26:44;16.95;;;9.68;;
19569;SDS011;9931;51.458;7.256;2022-07-23T00:29:09;20.17;;;9.60;;
19569;SDS011;9931;51.458;7.256;2022-07-23T00:31:35;18.55;;;9.95;;
19569;SDS011;9931;51.458;7.256;2022-07-23T00:34:00;18.13;;;9.57;;
19569;SDS011;9931;51.458;7.256;2022-07-23T00:36:26;18.33;;;9.68;;
19569;SDS011;9931;51.458;7.256;2022-07-23T00:38:51;18.10;;;9.40;;
19569;SDS011;9931;51.458;7.256;2022-07-23T00:41:17;20.42;;;9.75;;
19569;SDS011;9931;51.458;7.256;2022-07-23T00:43:42;18.00;;;9.45;;
19569;SDS011;9931;51.458;7.256;2022-07-23T00:46:07;14.25;;;8.80;;
19569;SDS011;9931;51.458;7.256;2022-07-23T00:48:32;17.90;;;8.75;;
19569;SDS011;9931;51.458;7.256;2022-07-23T00:50:58;16.77;;;9.65;;
19569;SDS011;9931;51.458;7.256;2022-07-23T00:53:23;18.80;;;9.82;;
19569;SDS011;9931;51.458;7.256;2022-07-23T00:55:48;19.67;;;10.00;;
19569;SDS011;9931;51.458;7.256;2022-07-23T00:58:14;22.08;;;10.13;;
19569;SDS011;9931;51.458;7.256;2022-07-23T01:00:39;18.02;;;10.02;;
19569;SDS011;9931;51.458;7.256;2022-07-23T01:03:04;18.08;;;9.57;;
19569;SDS011;9931;51.458;7.256;2022-07-23T01:05:30;17.88;;;9.32;;
19569;SDS011;9931;51.458;7.256;2022-07-23T01:07:55;21.15;;;10.27;;
19569;SDS011;9931;51.458;7.256;2022-07-23T01:10:20;21.02;;;11.07;;
19569;SDS011;9931;51.458;7.256;2022-07-23T01:13:07;22.92;;;11.40;;
19569;SDS011;9931;51.458;7.256;2022-07-23T01:15:33;26.83;;;10.85;;
19569;SDS011;9931;51.458;7.256;2022-07-23T01:17:59;22.63;;;11.70;;
19569;SDS011;9931;51.458;7.256;2022-07-23T01:20:24;22.75;;;11.38;;
19569;SDS011;9931;51.458;7.256;2022-07-23T01:22:50;23.13;;;11.65;;
19569;SDS011;9931;51.458;7.256;2022-07-23T01:25:15;24.20;;;11.80;;
19569;SDS011;9931;51.458;7.256;2022-07-23T01:27:40;24.13;;;11.55;;
19569;SDS011;9931;51.458;7.256;2022-07-23T01:30:06;23.73;;;11.68;;
19569;SDS011;9931;51.458;7.256;2022-07-23T01:32:31;23.75;;;11.68;;
19569;SDS011;9931;51.458;7.256;2022-07-23T01:34:56;20.98;;;11.18;;
19569;SDS011;9931;51.458;7.256;2022-07-23T01:37:22;21.02;;;11.48;;
19569;SDS011;9931;51.458;7.256;2022-07-23T01:39:47;25.13;;;11.73;;
19569;SDS011;9931;51.458;7.256;2022-07-23T01:42:12;25.17;;;11.90;;
19569;SDS011;9931;51.458;7.256;2022-07-23T01:44:37;23.55;;;12.38;;
19569;SDS011;9931;51.458;7.256;2022-07-23T01:47:03;22.02;;;11.95;;
19569;SDS011;9931;51.458;7.256;2022-07-23T01:49:28;27.05;;;12.68;;
19569;SDS011;9931;51.458;7.256;2022-07-23T01:51:53;25.48;;;12.30;;
19569;SDS011;9931;51.458;7.256;2022-07-23T01:54:28;24.52;;;12.20;;
19569;SDS011;9931;51.458;7.256;2022-07-23T01:56:54;26.98;;;11.77;;
19569;SDS011;9931;51.458;7.256;2022-07-23T01:59:19;22.08;;;11.18;;
19569;SDS011;9931;51.458;7.256;2022-07-23T02:01:44;29.30;;;13.23;;
19569;SDS011;9931;51.458;7.256;2022-07-23T02:04:10;22.65;;;11.73;;
19569;SDS011;9931;51.458;7.256;2022-07-23T02:06:35;25.73;;;12.80;;
19569;SDS011;9931;51.458;7.256;2022-07-23T02:09:00;26.55;;;11.48;;
19569;SDS011;9931;51.458;7.256;2022-07-23T02:11:25;23.13;;;11.90;;
19569;SDS011;9931;51.458;7.256;2022-07-23T02:13:51;27.77;;;12.80;;
19569;SDS011;9931;51.458;7.256;2022-07-23T02:16:16;21.17;;;11.60;;
19569;SDS011;9931;51.458;7.256;2022-07-23T02:18:41;24.20;;;11.07;;
19569;SDS011;9931;51.458;7.256;2022-07-23T02:21:06;24.98;;;12.43;;
19569;SDS011;9931;51.458;7.256;2022-07-23T02:23:31;24.10;;;12.50;;
19569;SDS011;9931;51.458;7.256;2022-07-23T02:25:57;27.25;;;12.68;;
19569;SDS011;9931;51.458;7.256;2022-07-23T02:28:22;25.38;;;12.38;;
19569;SDS011;9931;51.458;7.256;2022-07-23T02:30:47;27.30;;;12.70;;
19569;SDS011;9931;51.458;7.256;2022-07-23T02:33:12;26.57;;;14.17;;
19569;SDS011;9931;51.458;7.256;2022-07-23T02:35:38;30.42;;;14.07;;
19569;SDS011;9931;51.458;7.256;2022-07-23T02:38:03;29.80;;;13.57;;
19569;SDS011;9931;51.458;7.256;2022-07-23T02:40:28;27.10;;;12.77;;
19569;SDS011;9931;51.458;7.256;2022-07-23T02:42:53;28.88;;;13.98;;
19569;SDS011;9931;51.458;7.256;2022-07-23T02:45:18;28.80;;;13.63;;
19569;SDS011;9931;51.458;7.256;2022-07-23T02:47:44;28.48;;;13.00;;
19569;SDS011;9931;51.458;7.256;2022-07-23T02:50:09;27.70;;;13.10;;
19569;SDS011;9931;51.458;7.256;2022-07-23T02:52:34;25.55;;;13.05;;
19569;SDS011;9931;51.458;7.256;2022-07-23T02:55:00;28.75;;;13.45;;
19569;SDS011;9931;51.458;7.256;2022-07-23T02:57:25;27.67;;;13.15;;
19569;SDS011;9931;51.458;7.256;2022-07-23T02:59:50;30.38;;;13.48;;
19569;SDS011;9931;51.458;7.256;2022-07-23T03:02:15;31.67;;;13.50;;
19569;SDS011;9931;51.458;7.256;2022-07-23T03:04:40;26.05;;;12.95;;
19569;SDS011;9931;51.458;7.256;2022-07-23T03:07:07;28.50;;;13.93;;
19569;SDS011;9931;51.458;7.256;2022-07-23T03:09:32;26.17;;;12.70;;
19569;SDS011;9931;51.458;7.256;2022-07-23T03:11:57;27.65;;;13.30;;
19569;SDS011;9931;51.458;7.256;2022-07-23T03:14:23;22.17;;;12.60;;
19569;SDS011;9931;51.458;7.256;2022-07-23T03:16:49;25.02;;;12.23;;
19569;SDS011;9931;51.458;7.256;2022-07-23T03:19:15;27.35;;;12.68;;
19569;SDS011;9931;51.458;7.256;2022-07-23T03:21:40;25.92;;;13.25;;
19569;SDS011;9931;51.458;7.256;2022-07-23T03:24:08;25.67;;;12.52;;
19569;SDS011;9931;51.458;7.256;2022-07-23T03:26:34;28.70;;;13.40;;
19569;SDS011;9931;51.458;7.256;2022-07-23T03:28:59;24.27;;;13.02;;
19569;SDS011;9931;51.458;7.256;2022-07-23T03:31:26;27.48;;;12.82;;
19569;SDS011;9931;51.458;7.256;2022-07-23T03:33:51;27.38;;;12.48;;
19569;SDS011;9931;51.458;7.256;2022-07-23T03:36:16;27.90;;;13.07;;
19569;SDS011;9931;51.458;7.256;2022-07-23T03:38:41;22.48;;;12.60;;
19569;SDS011;9931;51.458;7.256;2022-07-23T03:41:07;25.95;;;13.20;;
19569;SDS011;9931;51.458;7.256;2022-07-23T03:43:32;71.57;;;34.20;;
19569;SDS011;9931;51.458;7.256;2022-07-23T03:45:58;34.05;;;16.15;;
19569;SDS011;9931;51.458;7.256;2022-07-23T03:48:23;26.83;;;13.57;;
19569;SDS011;9931;51.458;7.256;2022-07-23T03:50:48;28.27;;;12.53;;
19569;SDS011;9931;51.458;7.256;2022-07-23T03:53:13;26.88;;;13.02;;
19569;SDS011;9931;51.458;7.256;2022-07-23T03:55:38;30.98;;;12.73;;
19569;SDS011;9931;51.458;7.256;2022-07-23T03:58:04;27.08;;;12.43;;
19569;SDS011;9931;51.458;7.256;2022-07-23T04:00:29;25.70;;;13.20;;
19569;SDS011;9931;51.458;7.256;2022-07-23T04:02:54;26.13;;;12.68;;
19569;SDS011;9931;51.458;7.256;2022-07-23T04:05:20;23.25;;;11.90;;
19569;SDS011;9931;51.458;7.256;2022-07-23T04:07:46;24.38;;;12.50;;
19569;SDS011;9931;51.458;7.256;2022-07-23T04:10:11;30.95;;;15.02;;
19569;SDS011;9931;51.458;7.256;2022-07-23T04:12:36;23.90;;;12.60;;
19569;SDS011;9931;51.458;7.256;2022-07-23T04:15:01;25.30;;;12.77;;
19569;SDS011;9931;51.458;7.256;2022-07-23T04:17:27;26.75;;;12.18;;
19569;SDS011;9931;51.458;7.256;2022-07-23T04:19:53;24.63;;;12.45;;
19569;SDS011;9931;51.458;7.256;2022-07-23T04:22:18;23.08;;;12.48;;
19569;SDS011;9931;51.458;7.256;2022-07-23T04:24:43;21.27;;;12.63;;
19569;SDS011;9931;51.458;7.256;2022-07-23T04:27:08;29.98;;;13.55;;
19569;SDS011;9931;51.458;7.256;2022-07-23T04:29:34;22.95;;;12.07;;
19569;SDS011;9931;51.458;7.256;2022-07-23T04:31:59;23.25;;;12.77;;
19569;SDS011;9931;51.458;7.256;2022-07-23T04:34:24;23.65;;;12.60;;
19569;SDS011;9931;51.458;7.256;2022-07-23T04:36:51;28.02;;;13.27;;
19569;SDS011;9931;51.458;7.256;2022-07-23T04:39:16;28.02;;;13.45;;
19569;SDS011;9931;51.458;7.256;2022-07-23T04:41:42;27.23;;;12.60;;
19569;SDS011;9931;51.458;7.256;2022-07-23T04:44:07;33.25;;;17.92;;
19569;SDS011;9931;51.458;7.256;2022-07-23T04:46:32;23.90;;;12.82;;
19569;SDS011;9931;51.458;7.256;2022-07-23T04:48:57;22.63;;;13.48;;
19569;SDS011;9931;51.458;7.256;2022-07-23T04:51:23;21.17;;;12.13;;
19569;SDS011;9931;51.458;7.256;2022-07-23T04:53:48;24.02;;;12.68;;
19569;SDS011;9931;51.458;7.256;2022-07-23T04:56:13;21.17;;;12.57;;
19569;SDS011;9931;51.458;7.256;2022-07-23T04:58:39;24.42;;;12.77;;
19569;SDS011;9931;51.458;7.256;2022-07-23T05:01:04;24.57;;;12.83;;
19569;SDS011;9931;51.458;7.256;2022-07-23T05:03:29;20.98;;;11.80;;
19569;SDS011;9931;51.458;7.256;2022-07-23T05:05:54;21.55;;;11.60;;
19569;SDS011;9931;51.458;7.256;2022-07-23T05:08:20;25.65;;;11.65;;
19569;SDS011;9931;51.458;7.256;2022-07-23T05:10:45;24.20;;;12.55;;
19569;SDS011;9931;51.458;7.256;2022-07-23T05:13:10;23.33;;;12.32;;
19569;SDS011;9931;51.458;7.256;2022-07-23T05:15:35;32.55;;;16.33;;
19569;SDS011;9931;51.458;7.256;2022-07-23T05:18:01;33.80;;;18.23;;
19569;SDS011;9931;51.458;7.256;2022-07-23T05:20:26;23.77;;;12.32;;
19569;SDS011;9931;51.458;7.256;2022-07-23T05:22:51;22.70;;;12.65;;
19569;SDS011;9931;51.458;7.256;2022-07-23T05:25:16;20.75;;;11.85;;
19569;SDS011;9931;51.458;7.256;2022-07-23T05:27:42;21.40;;;11.60;;
19569;SDS011;9931;51.458;7.256;2022-07-23T05:30:07;25.02;;;12.82;;
19569;SDS011;9931;51.458;7.256;2022-07-23T05:32:32;19.90;;;11.07;;
19569;SDS011;9931;51.458;7.256;2022-07-23T05:34:58;23.20;;;11.63;;
19569;SDS011;9931;51.458;7.256;2022-07-23T05:37:23;21.88;;;11.63;;
19569;SDS011;9931;51.458;7.256;2022-07-23T05:39:48;22.75;;;12.32;;
19569;SDS011;9931;51.458;7.256;2022-07-23T05:42:13;23.77;;;12.35;;
19569;SDS011;9931;51.458;7.256;2022-07-23T05:44:39;24.02;;;12.77;;
19569;SDS011;9931;51.458;7.256;2022-07-23T05:47:04;20.38;;;11.80;;
19569;SDS011;9931;51.458;7.256;2022-07-23T05:49:29;18.67;;;11.45;;
19569;SDS011;9931;51.458;7.256;2022-07-23T05:51:54;18.50;;;11.13;;
19569;SDS011;9931;51.458;7.256;2022-07-23T05:54:19;20.35;;;12.43;;
19569;SDS011;9931;51.458;7.256;2022-07-23T05:56:45;20.70;;;11.07;;
19569;SDS011;9931;51.458;7.256;2022-07-23T05:59:10;25.70;;;12.77;;
19569;SDS011;9931;51.458;7.256;2022-07-23T06:01:37;29.77;;;15.57;;
19569;SDS011;9931;51.458;7.256;2022-07-23T06:04:03;23.37;;;12.03;;
19569;SDS011;9931;51.458;7.256;2022-07-23T06:06:28;23.40;;;12.68;;
19569;SDS011;9931;51.458;7.256;2022-07-23T06:08:53;23.87;;;12.93;;
19569;SDS011;9931;51.458;7.256;2022-07-23T06:11:18;26.75;;;14.00;;
19569;SDS011;9931;51.458;7.256;2022-07-23T06:13:43;22.73;;;13.68;;
19569;SDS011;9931;51.458;7.256;2022-07-23T06:16:09;24.45;;;14.38;;
19569;SDS011;9931;51.458;7.256;2022-07-23T06:18:34;28.27;;;14.80;;
19569;SDS011;9931;51.458;7.256;2022-07-23T06:20:59;25.38;;;13.23;;
19569;SDS011;9931;51.458;7.256;2022-07-23T06:23:24;28.08;;;14.93;;
19569;SDS011;9931;51.458;7.256;2022-07-23T06:25:49;27.77;;;14.30;;
19569;SDS011;9931;51.458;7.256;2022-07-23T06:28:15;27.60;;;14.25;;
19569;SDS011;9931;51.458;7.256;2022-07-23T06:30:40;29.27;;;15.23;;
19569;SDS011;9931;51.458;7.256;2022-07-23T06:33:05;27.65;;;14.70;;
19569;SDS011;9931;51.458;7.256;2022-07-23T06:35:40;29.23;;;14.23;;
19569;SDS011;9931;51.458;7.256;2022-07-23T06:38:05;29.48;;;15.02;;
19569;SDS011;9931;51.458;7.256;2022-07-23T06:40:30;27.77;;;15.48;;
19569;SDS011;9931;51.458;7.256;2022-07-23T06:42:56;30.63;;;15.55;;
19569;SDS011;9931;51.458;7.256;2022-07-23T06:45:21;28.33;;;15.23;;
19569;SDS011;9931;51.458;7.256;2022-07-23T06:47:47;28.65;;;15.18;;
19569;SDS011;9931;51.458;7.256;2022-07-23T06:50:12;28.33;;;15.90;;
19569;SDS011;9931;51.458;7.256;2022-07-23T06:52:37;29.25;;;16.88;;
19569;SDS011;9931;51.458;7.256;2022-07-23T06:55:02;32.50;;;17.55;;
19569;SDS011;9931;51.458;7.256;2022-07-23T06:57:28;31.23;;;17.88;;
19569;SDS011;9931;51.458;7.256;2022-07-23T06:59:53;28.25;;;15.57;;
19569;SDS011;9931;51.458;7.256;2022-07-23T07:02:18;26.45;;;15.35;;
19569;SDS011;9931;51.458;7.256;2022-07-23T07:04:43;28.92;;;15.52;;
19569;SDS011;9931;51.458;7.256;2022-07-23T07:07:09;27.42;;;14.00;;
19569;SDS011;9931;51.458;7.256;2022-07-23T07:09:34;23.63;;;13.85;;
19569;SDS011;9931;51.458;7.256;2022-07-23T07:11:59;25.23;;;14.70;;
19569;SDS011;9931;51.458;7.256;2022-07-23T07:14:25;26.80;;;15.05;;
19569;SDS011;9931;51.458;7.256;2022-07-23T07:16:50;24.13;;;13.85;;
19569;SDS011;9931;51.458;7.256;2022-07-23T07:19:16;25.65;;;13.80;;
19569;SDS011;9931;51.458;7.256;2022-07-23T07:21:41;28.75;;;14.13;;
19569;SDS011;9931;51.458;7.256;2022-07-23T07:24:06;26.27;;;13.70;;
19569;SDS011;9931;51.458;7.256;2022-07-23T07:26:32;25.17;;;14.02;;
19569;SDS011;9931;51.458;7.256;2022-07-23T07:28:57;25.63;;;14.07;;
19569;SDS011;9931;51.458;7.256;2022-07-23T07:31:22;28.30;;;15.48;;
19569;SDS011;9931;51.458;7.256;2022-07-23T07:33:47;25.65;;;14.77;;
19569;SDS011;9931;51.458;7.256;2022-07-23T07:36:13;32.15;;;15.10;;
19569;SDS011;9931;51.458;7.256;2022-07-23T07:38:38;22.65;;;13.95;;
19569;SDS011;9931;51.458;7.256;2022-07-23T07:41:03;26.85;;;14.35;;
19569;SDS011;9931;51.458;7.256;2022-07-23T07:43:29;26.08;;;13.90;;
19569;SDS011;9931;51.458;7.256;2022-07-23T07:45:54;26.23;;;13.43;;
19569;SDS011;9931;51.458;7.256;2022-07-23T07:48:19;25.27;;;13.75;;
19569;SDS011;9931;51.458;7.256;2022-07-23T07:50:44;22.77;;;12.98;;
19569;SDS011;9931;51.458;7.256;2022-07-23T07:53:10;24.27;;;13.93;;
19569;SDS011;9931;51.458;7.256;2022-07-23T07:55:35;20.35;;;12.10;;
19569;SDS011;9931;51.458;7.256;2022-07-23T07:58:00;21.00;;;12.60;;
19569;SDS011;9931;51.458;7.256;2022-07-23T08:00:26;27.40;;;13.68;;
19569;SDS011;9931;51.458;7.256;2022-07-23T08:02:52;19.13;;;11.98;;
19569;SDS011;9931;51.458;7.256;2022-07-23T08:05:21;24.77;;;13.40;;
19569;SDS011;9931;51.458;7.256;2022-07-23T08:07:46;19.35;;;11.13;;
19569;SDS011;9931;51.458;7.256;2022-07-23T08:10:11;23.20;;;12.10;;
19569;SDS011;9931;51.458;7.256;2022-07-23T08:12:38;18.38;;;10.82;;
19569;SDS011;9931;51.458;7.256;2022-07-23T08:15:03;19.08;;;10.68;;
19569;SDS011;9931;51.458;7.256;2022-07-23T08:17:28;19.33;;;12.63;;
19569;SDS011;9931;51.458;7.256;2022-07-23T08:19:54;19.15;;;11.98;;
19569;SDS011;9931;51.458;7.256;2022-07-23T08:22:19;22.05;;;11.60;;
19569;SDS011;9931;51.458;7.256;2022-07-23T08:24:44;18.15;;;11.05;;
19569;SDS011;9931;51.458;7.256;2022-07-23T08:27:09;32.08;;;13.27;;
19569;SDS011;9931;51.458;7.256;2022-07-23T08:29:34;13.70;;;8.63;;
19569;SDS011;9931;51.458;7.256;2022-07-23T08:32:00;12.05;;;8.48;;
19569;SDS011;9931;51.458;7.256;2022-07-23T08:34:25;12.77;;;7.68;;
19569;SDS011;9931;51.458;7.256;2022-07-23T08:36:50;12.45;;;7.57;;
19569;SDS011;9931;51.458;7.256;2022-07-23T08:39:15;13.43;;;8.02;;
19569;SDS011;9931;51.458;7.256;2022-07-23T08:41:41;12.45;;;7.50;;
19569;SDS011;9931;51.458;7.256;2022-07-23T08:44:07;12.02;;;7.50;;
19569;SDS011;9931;51.458;7.256;2022-07-23T08:46:32;12.88;;;7.85;;
19569;SDS011;9931;51.458;7.256;2022-07-23T08:48:58;15.35;;;8.90;;
19569;SDS011;9931;51.458;7.256;2022-07-23T08:51:25;13.25;;;9.63;;
19569;SDS011;9931;51.458;7.256;2022-07-23T08:53:51;11.73;;;8.38;;
19569;SDS011;9931;51.458;7.256;2022-07-23T08:56:17;11.90;;;7.75;;
19569;SDS011;9931;51.458;7.256;2022-07-23T08:58:42;12.50;;;8.00;;
19569;SDS011;9931;51.458;7.256;2022-07-23T09:01:07;12.57;;;9.65;;
19569;SDS011;9931;51.458;7.256;2022-07-23T09:03:33;11.88;;;8.98;;
19569;SDS011;9931;51.458;7.256;2022-07-23T09:06:00;16.08;;;11.55;;
19569;SDS011;9931;51.458;7.256;2022-07-23T09:08:39;15.30;;;11.60;;
19569;SDS011;9931;51.458;7.256;2022-07-23T09:11:06;13.57;;;11.50;;
19569;SDS011;9931;51.458;7.256;2022-07-23T09:15:58;13.48;;;10.35;;
19569;SDS011;9931;51.458;7.256;2022-07-23T09:18:27;15.32;;;10.60;;
19569;SDS011;9931;51.458;7.256;2022-07-23T09:21:04;19.05;;;12.98;;
19569;SDS011;9931;51.458;7.256;2022-07-23T09:23:36;14.77;;;11.13;;
19569;SDS011;9931;51.458;7.256;2022-07-23T09:26:02;13.77;;;9.95;;
19569;SDS011;9931;51.458;7.256;2022-07-23T09:28:28;13.55;;;10.15;;
19569;SDS011;9931;51.458;7.256;2022-07-23T09:30:53;16.20;;;10.65;;
19569;SDS011;9931;51.458;7.256;2022-07-23T09:33:18;15.83;;;10.50;;
19569;SDS011;9931;51.458;7.256;2022-07-23T09:35:46;14.00;;;9.50;;
19569;SDS011;9931;51.458;7.256;2022-07-23T09:38:12;12.32;;;9.73;;
19569;SDS011;9931;51.458;7.256;2022-07-23T09:40:37;14.77;;;9.73;;
19569;SDS011;9931;51.458;7.256;2022-07-23T09:43:02;13.60;;;10.15;;
19569;SDS011;9931;51.458;7.256;2022-07-23T09:45:27;15.48;;;11.23;;
19569;SDS011;9931;51.458;7.256;2022-07-23T09:48:09;19.92;;;12.77;;
19569;SDS011;9931;51.458;7.256;2022-07-23T09:50:34;17.27;;;11.10;;
19569;SDS011;9931;51.458;7.256;2022-07-23T09:52:59;14.50;;;10.48;;
19569;SDS011;9931;51.458;7.256;2022-07-23T09:55:30;13.68;;;9.70;;
19569;SDS011;9931;51.458;7.256;2022-07-23T09:57:59;15.95;;;11.10;;
19569;SDS011;9931;51.458;7.256;2022-07-23T10:00:24;11.77;;;9.02;;
19569;SDS011;9931;51.458;7.256;2022-07-23T10:02:50;14.20;;;9.00;;
19569;SDS011;9931;51.458;7.256;2022-07-23T10:05:16;11.73;;;8.32;;
19569;SDS011;9931;51.458;7.256;2022-07-23T10:07:42;9.95;;;7.25;;
19569;SDS011;9931;51.458;7.256;2022-07-23T10:10:10;9.48;;;8.05;;
19569;SDS011;9931;51.458;7.256;2022-07-23T10:12:36;12.80;;;8.15;;
19569;SDS011;9931;51.458;7.256;2022-07-23T10:15:16;11.48;;;8.27;;
19569;SDS011;9931;51.458;7.256;2022-07-23T10:17:41;11.40;;;7.20;;
19569;SDS011;9931;51.458;7.256;2022-07-23T10:20:07;10.30;;;6.53;;
19569;SDS011;9931;51.458;7.256;2022-07-23T10:27:53;9.60;;;6.55;;
19569;SDS011;9931;51.458;7.256;2022-07-23T10:38:05;6.28;;;4.93;;
19569;SDS011;9931;51.458;7.256;2022-07-23T10:40:32;7.53;;;4.72;;
19569;SDS011;9931;51.458;7.256;2022-07-23T10:42:58;8.25;;;5.20;;
19569;SDS011;9931;51.458;7.256;2022-07-23T10:47:51;8.25;;;5.25;;
19569;SDS011;9931;51.458;7.256;2022-07-23T10:52:42;12.17;;;8.10;;
19569;SDS011;9931;51.458;7.256;2022-07-23T10:57:52;20.67;;;12.35;;
19569;SDS011;9931;51.458;7.256;2022-07-23T11:02:46;7.05;;;4.55;;
19569;SDS011;9931;51.458;7.256;2022-07-23T11:05:15;6.68;;;4.70;;
19569;SDS011;9931;51.458;7.256;2022-07-23T11:10:32;7.40;;;4.35;;
19569;SDS011;9931;51.458;7.256;2022-07-23T11:13:24;6.60;;;4.68;;
19569;SDS011;9931;51.458;7.256;2022-07-23T11:34:31;6.22;;;4.22;;
19569;SDS011;9931;51.458;7.256;2022-07-23T11:36:57;6.32;;;5.18;;
19569;SDS011;9931;51.458;7.256;2022-07-23T11:39:24;6.18;;;4.25;;
19569;SDS011;9931;51.458;7.256;2022-07-23T11:41:50;6.40;;;4.20;;
19569;SDS011;9931;51.458;7.256;2022-07-23T11:46:54;5.97;;;4.57;;
19569;SDS011;9931;51.458;7.256;2022-07-23T11:49:20;5.43;;;4.22;;
19569;SDS011;9931;51.458;7.256;2022-07-23T11:51:45;6.93;;;4.57;;
19569;SDS011;9931;51.458;7.256;2022-07-23T11:54:10;5.38;;;3.97;;
19569;SDS011;9931;51.458;7.256;2022-07-23T11:56:36;7.38;;;4.68;;
19569;SDS011;9931;51.458;7.256;2022-07-23T11:59:01;12.48;;;8.93;;
19569;SDS011;9931;51.458;7.256;2022-07-23T12:01:26;5.20;;;4.28;;
19569;SDS011;9931;51.458;7.256;2022-07-23T12:03:52;8.38;;;5.28;;
19569;SDS011;9931;51.458;7.256;2022-07-23T12:06:17;6.95;;;4.70;;
19569;SDS011;9931;51.458;7.256;2022-07-23T12:08:43;9.73;;;4.70;;
19569;SDS011;9931;51.458;7.256;2022-07-23T12:11:08;11.95;;;5.82;;
19569;SDS011;9931;51.458;7.256;2022-07-23T12:13:36;16.65;;;11.30;;
19569;SDS011;9931;51.458;7.256;2022-07-23T12:16:01;8.32;;;4.90;;
19569;SDS011;9931;51.458;7.256;2022-07-23T12:18:27;7.95;;;4.78;;
19569;SDS011;9931;51.458;7.256;2022-07-23T12:20:54;11.38;;;5.30;;
19569;SDS011;9931;51.458;7.256;2022-07-23T12:23:20;9.02;;;4.50;;
19569;SDS011;9931;51.458;7.256;2022-07-23T12:25:46;5.68;;;3.60;;
19569;SDS011;9931;51.458;7.256;2022-07-23T12:28:13;2.85;;;2.60;;
19569;SDS011;9931;51.458;7.256;2022-07-23T12:30:43;6.03;;;3.55;;
19569;SDS011;9931;51.458;7.256;2022-07-23T12:33:09;4.88;;;3.50;;
19569;SDS011;9931;51.458;7.256;2022-07-23T12:35:45;8.45;;;5.25;;
19569;SDS011;9931;51.458;7.256;2022-07-23T12:38:11;6.50;;;3.65;;
19569;SDS011;9931;51.458;7.256;2022-07-23T12:40:47;8.38;;;4.65;;
19569;SDS011;9931;51.458;7.256;2022-07-23T12:43:32;3.40;;;3.10;;
19569;SDS011;9931;51.458;7.256;2022-07-23T12:46:04;5.78;;;3.38;;
19569;SDS011;9931;51.458;7.256;2022-07-23T12:48:31;5.22;;;3.60;;
19569;SDS011;9931;51.458;7.256;2022-07-23T12:53:31;5.93;;;3.47;;
19569;SDS011;9931;51.458;7.256;2022-07-23T12:56:01;16.67;;;6.13;;
19569;SDS011;9931;51.458;7.256;2022-07-23T12:58:27;12.15;;;5.30;;
19569;SDS011;9931;51.458;7.256;2022-07-23T13:01:04;14.45;;;5.50;;
19569;SDS011;9931;51.458;7.256;2022-07-23T13:05:55;4.55;;;3.28;;
19569;SDS011;9931;51.458;7.256;2022-07-23T13:08:20;5.15;;;3.22;;
19569;SDS011;9931;51.458;7.256;2022-07-23T13:10:46;9.80;;;4.35;;
19569;SDS011;9931;51.458;7.256;2022-07-23T13:13:13;7.70;;;4.10;;
19569;SDS011;9931;51.458;7.256;2022-07-23T13:15:38;6.97;;;3.83;;
19569;SDS011;9931;51.458;7.256;2022-07-23T13:18:04;13.65;;;5.80;;
19569;SDS011;9931;51.458;7.256;2022-07-23T13:20:29;4.85;;;3.40;;
19569;SDS011;9931;51.458;7.256;2022-07-23T13:22:56;8.32;;;3.72;;
19569;SDS011;9931;51.458;7.256;2022-07-23T13:25:21;9.63;;;4.57;;
19569;SDS011;9931;51.458;7.256;2022-07-23T13:27:47;10.77;;;4.95;;
19569;SDS011;9931;51.458;7.256;2022-07-23T13:30:12;20.23;;;9.95;;
19569;SDS011;9931;51.458;7.256;2022-07-23T13:32:37;8.10;;;4.68;;
19569;SDS011;9931;51.458;7.256;2022-07-23T13:35:03;6.60;;;4.18;;
19569;SDS011;9931;51.458;7.256;2022-07-23T13:37:29;8.20;;;4.82;;
19569;SDS011;9931;51.458;7.256;2022-07-23T13:39:54;9.40;;;5.10;;
19569;SDS011;9931;51.458;7.256;2022-07-23T13:42:19;7.43;;;4.20;;
19569;SDS011;9931;51.458;7.256;2022-07-23T13:44:44;10.23;;;5.07;;
19569;SDS011;9931;51.458;7.256;2022-07-23T13:47:09;5.17;;;3.50;;
19569;SDS011;9931;51.458;7.256;2022-07-23T13:49:35;7.63;;;3.67;;
19569;SDS011;9931;51.458;7.256;2022-07-23T13:52:00;3.80;;;3.45;;
19569;SDS011;9931;51.458;7.256;2022-07-23T13:54:26;9.18;;;4.03;;
19569;SDS011;9931;51.458;7.256;2022-07-23T13:56:51;3.47;;;3.03;;
19569;SDS011;9931;51.458;7.256;2022-07-23T13:59:16;6.35;;;3.83;;
19569;SDS011;9931;51.458;7.256;2022-07-23T14:01:42;8.65;;;4.15;;
19569;SDS011;9931;51.458;7.256;2022-07-23T14:04:08;6.13;;;3.40;;
19569;SDS011;9931;51.458;7.256;2022-07-23T14:06:34;5.50;;;3.45;;
19569;SDS011;9931;51.458;7.256;2022-07-23T14:08:59;7.60;;;3.88;;
19569;SDS011;9931;51.458;7.256;2022-07-23T14:11:24;7.07;;;3.83;;
19569;SDS011;9931;51.458;7.256;2022-07-23T14:13:50;4.93;;;3.20;;
19569;SDS011;9931;51.458;7.256;2022-07-23T14:16:15;8.38;;;3.72;;
19569;SDS011;9931;51.458;7.256;2022-07-23T14:18:41;6.65;;;3.42;;
19569;SDS011;9931;51.458;7.256;2022-07-23T14:21:06;12.55;;;4.93;;
19569;SDS011;9931;51.458;7.256;2022-07-23T14:23:31;7.78;;;4.05;;
19569;SDS011;9931;51.458;7.256;2022-07-23T14:25:57;7.63;;;3.97;;
19569;SDS011;9931;51.458;7.256;2022-07-23T14:28:22;9.63;;;4.15;;
19569;SDS011;9931;51.458;7.256;2022-07-23T14:30:47;7.17;;;3.93;;
19569;SDS011;9931;51.458;7.256;2022-07-23T14:33:12;6.82;;;3.83;;
19569;SDS011;9931;51.458;7.256;2022-07-23T14:35:40;18.08;;;10.88;;
19569;SDS011;9931;51.458;7.256;2022-07-23T14:38:05;11.15;;;4.38;;
19569;SDS011;9931;51.458;7.256;2022-07-23T14:40:31;11.25;;;5.18;;
19569;SDS011;9931;51.458;7.256;2022-07-23T14:42:56;9.10;;;4.18;;
19569;SDS011;9931;51.458;7.256;2022-07-23T14:45:21;7.07;;;3.77;;
19569;SDS011;9931;51.458;7.256;2022-07-23T14:47:46;4.07;;;3.20;;
19569;SDS011;9931;51.458;7.256;2022-07-23T14:50:13;12.25;;;5.30;;
19569;SDS011;9931;51.458;7.256;2022-07-23T14:52:38;6.45;;;4.00;;
19569;SDS011;9931;51.458;7.256;2022-07-23T14:55:03;8.23;;;4.28;;
19569;SDS011;9931;51.458;7.256;2022-07-23T14:57:29;7.60;;;4.18;;
19569;SDS011;9931;51.458;7.256;2022-07-23T14:59:54;6.50;;;4.57;;
19569;SDS011;9931;51.458;7.256;2022-07-23T15:02:19;9.02;;;4.72;;
19569;SDS011;9931;51.458;7.256;2022-07-23T15:04:45;10.43;;;5.05;;
19569;SDS011;9931;51.458;7.256;2022-07-23T15:07:10;13.05;;;5.60;;
19569;SDS011;9931;51.458;7.256;2022-07-23T15:09:36;13.55;;;5.75;;
19569;SDS011;9931;51.458;7.256;2022-07-23T15:12:01;9.45;;;4.30;;
19569;SDS011;9931;51.458;7.256;2022-07-23T15:14:26;16.25;;;5.90;;
19569;SDS011;9931;51.458;7.256;2022-07-23T15:16:51;12.93;;;5.47;;
19569;SDS011;9931;51.458;7.256;2022-07-23T15:19:17;6.78;;;3.97;;
19569;SDS011;9931;51.458;7.256;2022-07-23T15:21:42;9.23;;;4.18;;
19569;SDS011;9931;51.458;7.256;2022-07-23T15:24:07;7.88;;;3.92;;
19569;SDS011;9931;51.458;7.256;2022-07-23T15:26:32;7.43;;;4.18;;
19569;SDS011;9931;51.458;7.256;2022-07-23T15:28:58;8.30;;;4.15;;